sensor_id;sensor_type;location;lat;lon;timestamp;P1;durP1;ratioP1;P2;durP2;ratioP2
11414;SDS011;5763;42.714;23.244;2022-12-18T00:00:46;6.70;;;4.85;;
11414;SDS011;5763;42.714;23.244;2022-12-18T00:03:13;7.00;;;4.70;;
11414;SDS011;5763;42.714;23.244;2022-12-18T00:05:45;6.95;;;4.80;;
11414;SDS011;5763;42.714;23.244;2022-12-18T00:08:13;6.60;;;5.20;;
11414;SDS011;5763;42.714;23.244;2022-12-18T00:10:41;5.97;;;5.10;;
11414;SDS011;5763;42.714;23.244;2022-12-18T00:13:08;6.80;;;4.88;;
11414;SDS011;5763;42.714;23.244;2022-12-18T00:15:35;6.40;;;5.68;;
11414;SDS011;5763;42.714;23.244;2022-12-18T00:18:02;6.70;;;5.70;;
11414;SDS011;5763;42.714;23.244;2022-12-18T00:20:30;7.55;;;5.25;;
11414;SDS011;5763;42.714;23.244;2022-12-18T00:22:57;6.65;;;5.30;;
11414;SDS011;5763;42.714;23.244;2022-12-18T00:25:24;5.93;;;4.65;;
11414;SDS011;5763;42.714;23.244;2022-12-18T00:27:52;6.38;;;4.72;;
11414;SDS011;5763;42.714;23.244;2022-12-18T00:30:19;5.03;;;4.43;;
11414;SDS011;5763;42.714;23.244;2022-12-18T00:32:45;6.18;;;4.50;;
11414;SDS011;5763;42.714;23.244;2022-12-18T00:35:12;6.38;;;5.00;;
11414;SDS011;5763;42.714;23.244;2022-12-18T00:37:39;6.32;;;4.82;;
11414;SDS011;5763;42.714;23.244;2022-12-18T00:40:06;6.47;;;5.00;;
11414;SDS011;5763;42.714;23.244;2022-12-18T00:42:34;7.00;;;5.20;;
11414;SDS011;5763;42.714;23.244;2022-12-18T00:45:19;5.97;;;4.75;;
11414;SDS011;5763;42.714;23.244;2022-12-18T00:47:46;6.53;;;5.28;;
11414;SDS011;5763;42.714;23.244;2022-12-18T00:50:13;6.43;;;5.05;;
11414;SDS011;5763;42.714;23.244;2022-12-18T00:52:40;5.78;;;4.75;;
11414;SDS011;5763;42.714;23.244;2022-12-18T00:55:07;6.65;;;5.45;;
11414;SDS011;5763;42.714;23.244;2022-12-18T00:57:35;6.65;;;5.63;;
11414;SDS011;5763;42.714;23.244;2022-12-18T01:00:02;7.10;;;5.65;;
11414;SDS011;5763;42.714;23.244;2022-12-18T01:02:31;7.07;;;5.30;;
11414;SDS011;5763;42.714;23.244;2022-12-18T01:04:58;6.10;;;5.32;;
11414;SDS011;5763;42.714;23.244;2022-12-18T01:07:24;8.48;;;5.95;;
11414;SDS011;5763;42.714;23.244;2022-12-18T01:09:51;8.93;;;6.70;;
11414;SDS011;5763;42.714;23.244;2022-12-18T01:12:18;8.35;;;6.57;;
11414;SDS011;5763;42.714;23.244;2022-12-18T01:14:45;7.95;;;6.10;;
11414;SDS011;5763;42.714;23.244;2022-12-18T01:17:11;9.55;;;6.63;;
11414;SDS011;5763;42.714;23.244;2022-12-18T01:19:39;8.50;;;6.47;;
11414;SDS011;5763;42.714;23.244;2022-12-18T01:22:06;7.35;;;6.32;;
11414;SDS011;5763;42.714;23.244;2022-12-18T01:24:33;9.55;;;7.00;;
11414;SDS011;5763;42.714;23.244;2022-12-18T01:27:00;8.45;;;6.75;;
11414;SDS011;5763;42.714;23.244;2022-12-18T01:29:27;7.95;;;6.57;;
11414;SDS011;5763;42.714;23.244;2022-12-18T01:31:54;8.20;;;6.63;;
11414;SDS011;5763;42.714;23.244;2022-12-18T01:34:21;7.35;;;5.63;;
11414;SDS011;5763;42.714;23.244;2022-12-18T01:36:50;7.03;;;5.50;;
11414;SDS011;5763;42.714;23.244;2022-12-18T01:39:17;7.70;;;6.20;;
11414;SDS011;5763;42.714;23.244;2022-12-18T01:41:45;8.75;;;6.25;;
11414;SDS011;5763;42.714;23.244;2022-12-18T01:47:21;8.48;;;6.15;;
11414;SDS011;5763;42.714;23.244;2022-12-18T01:49:51;7.28;;;5.60;;
11414;SDS011;5763;42.714;23.244;2022-12-18T01:52:20;7.03;;;5.30;;
11414;SDS011;5763;42.714;23.244;2022-12-18T01:54:49;8.27;;;5.70;;
11414;SDS011;5763;42.714;23.244;2022-12-18T01:57:18;5.82;;;5.15;;
11414;SDS011;5763;42.714;23.244;2022-12-18T01:59:45;7.95;;;6.13;;
11414;SDS011;5763;42.714;23.244;2022-12-18T02:02:16;8.43;;;5.22;;
11414;SDS011;5763;42.714;23.244;2022-12-18T02:04:44;9.70;;;5.25;;
11414;SDS011;5763;42.714;23.244;2022-12-18T02:07:11;6.45;;;5.05;;
11414;SDS011;5763;42.714;23.244;2022-12-18T02:09:45;8.02;;;5.22;;
11414;SDS011;5763;42.714;23.244;2022-12-18T02:12:16;6.88;;;5.07;;
11414;SDS011;5763;42.714;23.244;2022-12-18T02:14:48;7.55;;;5.30;;
11414;SDS011;5763;42.714;23.244;2022-12-18T02:17:21;5.63;;;4.72;;
11414;SDS011;5763;42.714;23.244;2022-12-18T02:19:55;6.63;;;5.35;;
11414;SDS011;5763;42.714;23.244;2022-12-18T02:22:34;5.30;;;4.68;;
11414;SDS011;5763;42.714;23.244;2022-12-18T02:25:15;7.63;;;5.60;;
11414;SDS011;5763;42.714;23.244;2022-12-18T02:27:56;7.63;;;5.20;;
11414;SDS011;5763;42.714;23.244;2022-12-18T02:30:26;6.13;;;5.18;;
11414;SDS011;5763;42.714;23.244;2022-12-18T02:32:57;7.70;;;4.88;;
11414;SDS011;5763;42.714;23.244;2022-12-18T02:35:27;7.03;;;5.32;;
11414;SDS011;5763;42.714;23.244;2022-12-18T02:37:56;8.80;;;5.80;;
11414;SDS011;5763;42.714;23.244;2022-12-18T02:40:25;6.53;;;5.78;;
11414;SDS011;5763;42.714;23.244;2022-12-18T02:42:54;7.00;;;5.80;;
11414;SDS011;5763;42.714;23.244;2022-12-18T02:45:22;6.25;;;4.93;;
11414;SDS011;5763;42.714;23.244;2022-12-18T02:47:49;7.00;;;5.15;;
11414;SDS011;5763;42.714;23.244;2022-12-18T02:50:18;6.88;;;5.35;;
11414;SDS011;5763;42.714;23.244;2022-12-18T02:52:56;8.77;;;5.32;;
11414;SDS011;5763;42.714;23.244;2022-12-18T02:55:34;5.70;;;4.72;;
11414;SDS011;5763;42.714;23.244;2022-12-18T02:58:13;7.75;;;6.32;;
11414;SDS011;5763;42.714;23.244;2022-12-18T03:00:47;6.88;;;5.43;;
11414;SDS011;5763;42.714;23.244;2022-12-18T03:03:18;7.43;;;5.35;;
11414;SDS011;5763;42.714;23.244;2022-12-18T03:05:53;8.23;;;5.30;;
11414;SDS011;5763;42.714;23.244;2022-12-18T03:08:27;7.97;;;5.63;;
11414;SDS011;5763;42.714;23.244;2022-12-18T03:10:56;7.18;;;5.47;;
11414;SDS011;5763;42.714;23.244;2022-12-18T03:13:26;7.97;;;4.95;;
11414;SDS011;5763;42.714;23.244;2022-12-18T03:15:58;7.07;;;5.45;;
11414;SDS011;5763;42.714;23.244;2022-12-18T03:18:27;8.43;;;5.95;;
11414;SDS011;5763;42.714;23.244;2022-12-18T03:21:00;7.90;;;5.32;;
11414;SDS011;5763;42.714;23.244;2022-12-18T03:23:32;5.63;;;4.80;;
11414;SDS011;5763;42.714;23.244;2022-12-18T03:26:02;5.93;;;5.00;;
11414;SDS011;5763;42.714;23.244;2022-12-18T03:28:33;7.38;;;5.40;;
11414;SDS011;5763;42.714;23.244;2022-12-18T03:31:06;7.78;;;5.35;;
11414;SDS011;5763;42.714;23.244;2022-12-18T03:33:37;9.63;;;5.57;;
11414;SDS011;5763;42.714;23.244;2022-12-18T03:36:07;7.82;;;5.78;;
11414;SDS011;5763;42.714;23.244;2022-12-18T03:38:34;6.32;;;5.13;;
11414;SDS011;5763;42.714;23.244;2022-12-18T03:41:03;6.93;;;5.32;;
11414;SDS011;5763;42.714;23.244;2022-12-18T03:43:36;6.65;;;5.28;;
11414;SDS011;5763;42.714;23.244;2022-12-18T03:46:11;7.68;;;5.47;;
11414;SDS011;5763;42.714;23.244;2022-12-18T03:48:46;7.70;;;5.70;;
11414;SDS011;5763;42.714;23.244;2022-12-18T03:51:18;6.22;;;5.05;;
11414;SDS011;5763;42.714;23.244;2022-12-18T03:53:53;7.20;;;5.80;;
11414;SDS011;5763;42.714;23.244;2022-12-18T03:56:24;7.63;;;5.30;;
11414;SDS011;5763;42.714;23.244;2022-12-18T03:58:56;7.97;;;6.10;;
11414;SDS011;5763;42.714;23.244;2022-12-18T04:01:28;7.25;;;6.00;;
11414;SDS011;5763;42.714;23.244;2022-12-18T04:03:58;7.45;;;6.43;;
11414;SDS011;5763;42.714;23.244;2022-12-18T04:06:26;8.45;;;6.38;;
11414;SDS011;5763;42.714;23.244;2022-12-18T04:08:56;9.05;;;7.00;;
11414;SDS011;5763;42.714;23.244;2022-12-18T04:11:23;10.35;;;7.00;;
11414;SDS011;5763;42.714;23.244;2022-12-18T04:13:50;9.75;;;7.05;;
11414;SDS011;5763;42.714;23.244;2022-12-18T04:16:21;9.40;;;6.63;;
11414;SDS011;5763;42.714;23.244;2022-12-18T04:18:49;9.52;;;6.60;;
11414;SDS011;5763;42.714;23.244;2022-12-18T04:21:16;8.32;;;6.65;;
11414;SDS011;5763;42.714;23.244;2022-12-18T04:23:42;9.60;;;7.47;;
11414;SDS011;5763;42.714;23.244;2022-12-18T04:26:09;10.10;;;7.68;;
11414;SDS011;5763;42.714;23.244;2022-12-18T04:28:36;8.63;;;6.70;;
11414;SDS011;5763;42.714;23.244;2022-12-18T04:31:03;11.23;;;7.93;;
11414;SDS011;5763;42.714;23.244;2022-12-18T04:33:30;9.98;;;7.80;;
11414;SDS011;5763;42.714;23.244;2022-12-18T04:35:58;10.93;;;7.60;;
11414;SDS011;5763;42.714;23.244;2022-12-18T04:38:25;11.07;;;7.75;;
11414;SDS011;5763;42.714;23.244;2022-12-18T04:40:52;12.02;;;7.72;;
11414;SDS011;5763;42.714;23.244;2022-12-18T04:43:19;11.02;;;8.30;;
11414;SDS011;5763;42.714;23.244;2022-12-18T04:45:45;10.73;;;7.50;;
11414;SDS011;5763;42.714;23.244;2022-12-18T04:48:12;11.10;;;8.38;;
11414;SDS011;5763;42.714;23.244;2022-12-18T04:50:39;9.55;;;7.60;;
11414;SDS011;5763;42.714;23.244;2022-12-18T04:53:07;11.95;;;8.55;;
11414;SDS011;5763;42.714;23.244;2022-12-18T04:55:33;11.25;;;8.00;;
11414;SDS011;5763;42.714;23.244;2022-12-18T04:58:00;11.48;;;8.60;;
11414;SDS011;5763;42.714;23.244;2022-12-18T05:00:27;14.20;;;8.68;;
11414;SDS011;5763;42.714;23.244;2022-12-18T05:02:53;14.13;;;9.27;;
11414;SDS011;5763;42.714;23.244;2022-12-18T05:05:20;13.18;;;9.43;;
11414;SDS011;5763;42.714;23.244;2022-12-18T05:07:47;13.52;;;8.98;;
11414;SDS011;5763;42.714;23.244;2022-12-18T05:10:15;12.73;;;9.23;;
11414;SDS011;5763;42.714;23.244;2022-12-18T05:12:42;12.35;;;9.38;;
11414;SDS011;5763;42.714;23.244;2022-12-18T05:15:38;12.50;;;9.05;;
11414;SDS011;5763;42.714;23.244;2022-12-18T05:18:07;11.23;;;7.85;;
11414;SDS011;5763;42.714;23.244;2022-12-18T05:20:34;12.10;;;8.77;;
11414;SDS011;5763;42.714;23.244;2022-12-18T05:23:01;11.18;;;7.88;;
11414;SDS011;5763;42.714;23.244;2022-12-18T05:25:27;11.95;;;8.77;;
11414;SDS011;5763;42.714;23.244;2022-12-18T05:27:54;12.57;;;9.02;;
11414;SDS011;5763;42.714;23.244;2022-12-18T05:30:21;14.50;;;8.60;;
11414;SDS011;5763;42.714;23.244;2022-12-18T05:32:49;13.80;;;8.88;;
11414;SDS011;5763;42.714;23.244;2022-12-18T05:35:16;10.93;;;8.38;;
11414;SDS011;5763;42.714;23.244;2022-12-18T05:37:42;12.43;;;9.40;;
11414;SDS011;5763;42.714;23.244;2022-12-18T05:40:10;12.32;;;9.45;;
11414;SDS011;5763;42.714;23.244;2022-12-18T05:42:37;14.27;;;9.65;;
11414;SDS011;5763;42.714;23.244;2022-12-18T05:45:05;13.50;;;9.23;;
11414;SDS011;5763;42.714;23.244;2022-12-18T05:47:32;15.63;;;10.05;;
11414;SDS011;5763;42.714;23.244;2022-12-18T05:50:00;16.33;;;9.68;;
11414;SDS011;5763;42.714;23.244;2022-12-18T05:52:27;15.55;;;9.40;;
11414;SDS011;5763;42.714;23.244;2022-12-18T05:54:54;13.40;;;10.07;;
11414;SDS011;5763;42.714;23.244;2022-12-18T05:57:20;14.27;;;9.25;;
11414;SDS011;5763;42.714;23.244;2022-12-18T05:59:47;13.57;;;9.65;;
11414;SDS011;5763;42.714;23.244;2022-12-18T06:02:14;13.27;;;8.95;;
11414;SDS011;5763;42.714;23.244;2022-12-18T06:04:41;13.20;;;9.25;;
11414;SDS011;5763;42.714;23.244;2022-12-18T06:07:09;14.63;;;9.00;;
11414;SDS011;5763;42.714;23.244;2022-12-18T06:09:36;13.43;;;8.95;;
11414;SDS011;5763;42.714;23.244;2022-12-18T06:12:02;11.80;;;8.60;;
11414;SDS011;5763;42.714;23.244;2022-12-18T06:14:29;12.65;;;8.68;;
11414;SDS011;5763;42.714;23.244;2022-12-18T06:16:56;14.77;;;10.00;;
11414;SDS011;5763;42.714;23.244;2022-12-18T06:19:23;14.48;;;10.00;;
11414;SDS011;5763;42.714;23.244;2022-12-18T06:21:50;13.25;;;9.90;;
11414;SDS011;5763;42.714;23.244;2022-12-18T06:24:18;14.75;;;10.40;;
11414;SDS011;5763;42.714;23.244;2022-12-18T06:26:44;14.63;;;10.52;;
11414;SDS011;5763;42.714;23.244;2022-12-18T06:29:11;14.20;;;9.90;;
11414;SDS011;5763;42.714;23.244;2022-12-18T06:31:38;12.80;;;9.50;;
11414;SDS011;5763;42.714;23.244;2022-12-18T06:34:05;13.77;;;9.05;;
11414;SDS011;5763;42.714;23.244;2022-12-18T06:36:32;12.48;;;9.60;;
11414;SDS011;5763;42.714;23.244;2022-12-18T06:38:58;16.48;;;9.43;;
11414;SDS011;5763;42.714;23.244;2022-12-18T06:41:26;13.95;;;9.73;;
11414;SDS011;5763;42.714;23.244;2022-12-18T06:43:53;12.77;;;8.70;;
11414;SDS011;5763;42.714;23.244;2022-12-18T06:46:20;14.27;;;8.77;;
11414;SDS011;5763;42.714;23.244;2022-12-18T06:48:47;17.27;;;10.00;;
11414;SDS011;5763;42.714;23.244;2022-12-18T06:51:16;13.32;;;9.38;;
11414;SDS011;5763;42.714;23.244;2022-12-18T06:53:44;13.95;;;10.13;;
11414;SDS011;5763;42.714;23.244;2022-12-18T06:56:11;15.00;;;9.82;;
11414;SDS011;5763;42.714;23.244;2022-12-18T06:58:39;14.63;;;10.40;;
11414;SDS011;5763;42.714;23.244;2022-12-18T07:01:07;12.35;;;9.15;;
11414;SDS011;5763;42.714;23.244;2022-12-18T07:03:35;15.32;;;9.63;;
11414;SDS011;5763;42.714;23.244;2022-12-18T07:06:02;13.60;;;10.07;;
11414;SDS011;5763;42.714;23.244;2022-12-18T07:08:31;16.15;;;10.63;;
11414;SDS011;5763;42.714;23.244;2022-12-18T07:10:59;15.63;;;10.48;;
11414;SDS011;5763;42.714;23.244;2022-12-18T07:13:29;16.80;;;12.10;;
11414;SDS011;5763;42.714;23.244;2022-12-18T07:16:03;16.67;;;11.15;;
11414;SDS011;5763;42.714;23.244;2022-12-18T07:18:31;16.02;;;11.85;;
11414;SDS011;5763;42.714;23.244;2022-12-18T07:21:00;17.92;;;12.05;;
11414;SDS011;5763;42.714;23.244;2022-12-18T07:23:29;16.08;;;11.93;;
11414;SDS011;5763;42.714;23.244;2022-12-18T07:25:59;17.95;;;11.32;;
11414;SDS011;5763;42.714;23.244;2022-12-18T07:28:27;18.15;;;11.90;;
11414;SDS011;5763;42.714;23.244;2022-12-18T07:30:53;17.98;;;13.00;;
11414;SDS011;5763;42.714;23.244;2022-12-18T07:33:22;19.05;;;12.63;;
11414;SDS011;5763;42.714;23.244;2022-12-18T07:35:48;19.95;;;11.95;;
11414;SDS011;5763;42.714;23.244;2022-12-18T07:38:15;20.02;;;12.35;;
11414;SDS011;5763;42.714;23.244;2022-12-18T07:40:42;18.00;;;12.60;;
11414;SDS011;5763;42.714;23.244;2022-12-18T07:43:08;19.10;;;12.23;;
11414;SDS011;5763;42.714;23.244;2022-12-18T07:45:35;20.85;;;12.95;;
11414;SDS011;5763;42.714;23.244;2022-12-18T07:48:02;18.58;;;12.73;;
11414;SDS011;5763;42.714;23.244;2022-12-18T07:50:30;19.05;;;13.07;;
11414;SDS011;5763;42.714;23.244;2022-12-18T07:52:57;19.70;;;13.35;;
11414;SDS011;5763;42.714;23.244;2022-12-18T07:55:28;19.92;;;13.15;;
11414;SDS011;5763;42.714;23.244;2022-12-18T07:57:55;16.13;;;12.35;;
11414;SDS011;5763;42.714;23.244;2022-12-18T08:00:22;19.48;;;12.63;;
11414;SDS011;5763;42.714;23.244;2022-12-18T08:02:49;17.98;;;12.50;;
11414;SDS011;5763;42.714;23.244;2022-12-18T08:05:15;20.77;;;12.90;;
11414;SDS011;5763;42.714;23.244;2022-12-18T08:07:44;18.13;;;11.88;;
11414;SDS011;5763;42.714;23.244;2022-12-18T08:10:11;17.38;;;12.05;;
11414;SDS011;5763;42.714;23.244;2022-12-18T08:12:37;20.13;;;13.13;;
11414;SDS011;5763;42.714;23.244;2022-12-18T08:15:05;18.48;;;12.50;;
11414;SDS011;5763;42.714;23.244;2022-12-18T08:17:33;17.40;;;11.88;;
11414;SDS011;5763;42.714;23.244;2022-12-18T08:19:59;15.93;;;11.70;;
11414;SDS011;5763;42.714;23.244;2022-12-18T08:22:26;16.42;;;10.98;;
11414;SDS011;5763;42.714;23.244;2022-12-18T08:24:55;18.73;;;11.60;;
11414;SDS011;5763;42.714;23.244;2022-12-18T08:27:21;19.85;;;13.63;;
11414;SDS011;5763;42.714;23.244;2022-12-18T08:29:48;19.60;;;13.23;;
11414;SDS011;5763;42.714;23.244;2022-12-18T08:32:15;19.23;;;12.00;;
11414;SDS011;5763;42.714;23.244;2022-12-18T08:34:42;18.52;;;11.65;;
11414;SDS011;5763;42.714;23.244;2022-12-18T08:37:08;17.45;;;11.88;;
11414;SDS011;5763;42.714;23.244;2022-12-18T08:39:35;17.15;;;12.00;;
11414;SDS011;5763;42.714;23.244;2022-12-18T08:42:03;18.45;;;11.85;;
11414;SDS011;5763;42.714;23.244;2022-12-18T08:44:47;17.02;;;11.18;;
11414;SDS011;5763;42.714;23.244;2022-12-18T08:47:14;18.83;;;11.93;;
11414;SDS011;5763;42.714;23.244;2022-12-18T08:49:41;17.63;;;11.77;;
11414;SDS011;5763;42.714;23.244;2022-12-18T08:52:07;17.63;;;11.35;;
11414;SDS011;5763;42.714;23.244;2022-12-18T08:54:34;16.05;;;10.82;;
11414;SDS011;5763;42.714;23.244;2022-12-18T08:57:01;16.58;;;10.77;;
11414;SDS011;5763;42.714;23.244;2022-12-18T08:59:29;18.50;;;11.68;;
11414;SDS011;5763;42.714;23.244;2022-12-18T09:01:56;15.55;;;10.48;;
11414;SDS011;5763;42.714;23.244;2022-12-18T09:04:22;17.58;;;11.43;;
11414;SDS011;5763;42.714;23.244;2022-12-18T09:06:49;17.38;;;11.85;;
11414;SDS011;5763;42.714;23.244;2022-12-18T09:09:16;16.33;;;11.15;;
11414;SDS011;5763;42.714;23.244;2022-12-18T09:11:43;14.65;;;10.15;;
11414;SDS011;5763;42.714;23.244;2022-12-18T09:14:09;16.52;;;10.35;;
11414;SDS011;5763;42.714;23.244;2022-12-18T09:16:38;20.05;;;12.48;;
11414;SDS011;5763;42.714;23.244;2022-12-18T09:19:05;19.13;;;11.57;;
11414;SDS011;5763;42.714;23.244;2022-12-18T09:21:33;15.73;;;10.80;;
11414;SDS011;5763;42.714;23.244;2022-12-18T09:24:01;17.27;;;11.85;;
11414;SDS011;5763;42.714;23.244;2022-12-18T09:26:27;17.13;;;11.23;;
11414;SDS011;5763;42.714;23.244;2022-12-18T09:28:54;17.38;;;11.35;;
11414;SDS011;5763;42.714;23.244;2022-12-18T09:31:21;17.35;;;11.32;;
11414;SDS011;5763;42.714;23.244;2022-12-18T09:33:50;18.33;;;11.65;;
11414;SDS011;5763;42.714;23.244;2022-12-18T09:36:17;16.00;;;10.60;;
11414;SDS011;5763;42.714;23.244;2022-12-18T09:38:44;15.50;;;10.27;;
11414;SDS011;5763;42.714;23.244;2022-12-18T09:41:22;17.45;;;11.10;;
11414;SDS011;5763;42.714;23.244;2022-12-18T09:44:00;18.38;;;10.88;;
11414;SDS011;5763;42.714;23.244;2022-12-18T09:46:30;18.75;;;13.50;;
11414;SDS011;5763;42.714;23.244;2022-12-18T09:49:05;18.02;;;12.88;;
11414;SDS011;5763;42.714;23.244;2022-12-18T09:51:38;19.20;;;13.90;;
11414;SDS011;5763;42.714;23.244;2022-12-18T09:54:11;22.63;;;15.02;;
11414;SDS011;5763;42.714;23.244;2022-12-18T09:56:42;18.88;;;13.02;;
11414;SDS011;5763;42.714;23.244;2022-12-18T09:59:15;17.60;;;11.98;;
11414;SDS011;5763;42.714;23.244;2022-12-18T10:01:47;17.40;;;10.68;;
11414;SDS011;5763;42.714;23.244;2022-12-18T10:04:15;15.70;;;11.40;;
11414;SDS011;5763;42.714;23.244;2022-12-18T10:06:43;13.80;;;10.07;;
11414;SDS011;5763;42.714;23.244;2022-12-18T10:09:18;15.82;;;10.20;;
11414;SDS011;5763;42.714;23.244;2022-12-18T10:11:55;15.63;;;11.30;;
11414;SDS011;5763;42.714;23.244;2022-12-18T10:14:30;19.33;;;11.98;;
11414;SDS011;5763;42.714;23.244;2022-12-18T10:17:05;18.42;;;12.88;;
11414;SDS011;5763;42.714;23.244;2022-12-18T10:19:43;21.00;;;14.20;;
11414;SDS011;5763;42.714;23.244;2022-12-18T10:22:26;18.45;;;13.13;;
11414;SDS011;5763;42.714;23.244;2022-12-18T10:25:01;19.25;;;13.57;;
11414;SDS011;5763;42.714;23.244;2022-12-18T10:27:32;20.17;;;13.20;;
11414;SDS011;5763;42.714;23.244;2022-12-18T10:29:59;17.38;;;11.90;;
11414;SDS011;5763;42.714;23.244;2022-12-18T10:32:30;16.08;;;11.70;;
11414;SDS011;5763;42.714;23.244;2022-12-18T10:34:58;16.13;;;12.07;;
11414;SDS011;5763;42.714;23.244;2022-12-18T10:37:26;14.73;;;10.13;;
11414;SDS011;5763;42.714;23.244;2022-12-18T10:42:37;16.83;;;10.63;;
11414;SDS011;5763;42.714;23.244;2022-12-18T10:45:08;13.75;;;10.25;;
11414;SDS011;5763;42.714;23.244;2022-12-18T10:47:36;15.80;;;10.88;;
11414;SDS011;5763;42.714;23.244;2022-12-18T10:50:19;15.30;;;10.32;;
11414;SDS011;5763;42.714;23.244;2022-12-18T10:52:54;15.43;;;10.18;;
11414;SDS011;5763;42.714;23.244;2022-12-18T10:55:21;17.77;;;10.43;;
11414;SDS011;5763;42.714;23.244;2022-12-18T10:57:48;13.63;;;10.18;;
11414;SDS011;5763;42.714;23.244;2022-12-18T11:00:23;16.25;;;10.85;;
11414;SDS011;5763;42.714;23.244;2022-12-18T11:02:52;18.17;;;12.45;;
11414;SDS011;5763;42.714;23.244;2022-12-18T11:05:28;17.35;;;12.23;;
11414;SDS011;5763;42.714;23.244;2022-12-18T11:07:57;17.55;;;11.50;;
11414;SDS011;5763;42.714;23.244;2022-12-18T11:10:28;15.25;;;11.45;;
11414;SDS011;5763;42.714;23.244;2022-12-18T11:13:09;18.95;;;13.10;;
11414;SDS011;5763;42.714;23.244;2022-12-18T11:15:39;20.13;;;14.45;;
11414;SDS011;5763;42.714;23.244;2022-12-18T11:18:15;18.35;;;14.45;;
11414;SDS011;5763;42.714;23.244;2022-12-18T11:20:51;18.15;;;12.63;;
11414;SDS011;5763;42.714;23.244;2022-12-18T11:23:21;17.27;;;11.52;;
11414;SDS011;5763;42.714;23.244;2022-12-18T11:25:50;15.65;;;11.30;;
11414;SDS011;5763;42.714;23.244;2022-12-18T11:28:28;16.75;;;11.93;;
11414;SDS011;5763;42.714;23.244;2022-12-18T11:31:09;17.05;;;11.98;;
11414;SDS011;5763;42.714;23.244;2022-12-18T11:33:52;16.23;;;11.48;;
11414;SDS011;5763;42.714;23.244;2022-12-18T11:36:32;17.48;;;12.77;;
11414;SDS011;5763;42.714;23.244;2022-12-18T11:39:06;17.75;;;13.18;;
11414;SDS011;5763;42.714;23.244;2022-12-18T11:41:45;16.60;;;11.82;;
11414;SDS011;5763;42.714;23.244;2022-12-18T11:44:38;18.63;;;12.52;;
11414;SDS011;5763;42.714;23.244;2022-12-18T11:47:14;20.02;;;13.77;;
11414;SDS011;5763;42.714;23.244;2022-12-18T11:49:49;21.80;;;14.25;;
11414;SDS011;5763;42.714;23.244;2022-12-18T11:52:19;21.05;;;13.88;;
11414;SDS011;5763;42.714;23.244;2022-12-18T11:54:52;20.58;;;14.80;;
11414;SDS011;5763;42.714;23.244;2022-12-18T11:57:26;22.60;;;14.65;;
11414;SDS011;5763;42.714;23.244;2022-12-18T12:00:10;15.65;;;11.23;;
11414;SDS011;5763;42.714;23.244;2022-12-18T12:02:52;17.35;;;12.05;;
11414;SDS011;5763;42.714;23.244;2022-12-18T12:05:45;16.65;;;11.85;;
11414;SDS011;5763;42.714;23.244;2022-12-18T12:08:24;18.10;;;11.43;;
11414;SDS011;5763;42.714;23.244;2022-12-18T12:11:05;18.50;;;12.60;;
11414;SDS011;5763;42.714;23.244;2022-12-18T12:13:40;17.55;;;11.55;;
11414;SDS011;5763;42.714;23.244;2022-12-18T12:16:17;17.35;;;11.05;;
11414;SDS011;5763;42.714;23.244;2022-12-18T12:18:55;16.23;;;10.52;;
11414;SDS011;5763;42.714;23.244;2022-12-18T12:21:36;13.98;;;9.82;;
11414;SDS011;5763;42.714;23.244;2022-12-18T12:24:14;14.63;;;9.98;;
11414;SDS011;5763;42.714;23.244;2022-12-18T12:26:56;15.63;;;9.57;;
11414;SDS011;5763;42.714;23.244;2022-12-18T12:29:34;15.73;;;11.30;;
11414;SDS011;5763;42.714;23.244;2022-12-18T12:32:25;17.98;;;11.85;;
11414;SDS011;5763;42.714;23.244;2022-12-18T12:35:06;16.98;;;11.48;;
11414;SDS011;5763;42.714;23.244;2022-12-18T12:37:44;16.80;;;11.27;;
11414;SDS011;5763;42.714;23.244;2022-12-18T12:40:23;16.55;;;11.75;;
11414;SDS011;5763;42.714;23.244;2022-12-18T12:42:54;18.17;;;12.43;;
11414;SDS011;5763;42.714;23.244;2022-12-18T12:45:40;16.40;;;11.68;;
11414;SDS011;5763;42.714;23.244;2022-12-18T12:48:16;20.80;;;13.18;;
11414;SDS011;5763;42.714;23.244;2022-12-18T12:50:50;17.55;;;10.38;;
11414;SDS011;5763;42.714;23.244;2022-12-18T12:53:22;16.70;;;10.30;;
11414;SDS011;5763;42.714;23.244;2022-12-18T12:55:57;17.65;;;10.60;;
11414;SDS011;5763;42.714;23.244;2022-12-18T12:58:28;15.70;;;10.20;;
11414;SDS011;5763;42.714;23.244;2022-12-18T13:01:04;17.05;;;12.02;;
11414;SDS011;5763;42.714;23.244;2022-12-18T13:03:42;19.80;;;13.20;;
11414;SDS011;5763;42.714;23.244;2022-12-18T13:06:23;16.42;;;10.90;;
11414;SDS011;5763;42.714;23.244;2022-12-18T13:09:00;16.50;;;10.68;;
11414;SDS011;5763;42.714;23.244;2022-12-18T13:11:34;17.90;;;11.10;;
11414;SDS011;5763;42.714;23.244;2022-12-18T13:14:22;18.13;;;12.45;;
11414;SDS011;5763;42.714;23.244;2022-12-18T13:19:47;16.33;;;11.05;;
11414;SDS011;5763;42.714;23.244;2022-12-18T13:22:20;15.20;;;11.02;;
11414;SDS011;5763;42.714;23.244;2022-12-18T13:24:50;15.90;;;10.30;;
11414;SDS011;5763;42.714;23.244;2022-12-18T13:36:16;16.40;;;11.30;;
11414;SDS011;5763;42.714;23.244;2022-12-18T13:41:48;15.85;;;10.15;;
11414;SDS011;5763;42.714;23.244;2022-12-18T13:44:24;16.25;;;10.70;;
11414;SDS011;5763;42.714;23.244;2022-12-18T13:46:59;19.88;;;12.23;;
11414;SDS011;5763;42.714;23.244;2022-12-18T13:49:31;15.15;;;10.77;;
11414;SDS011;5763;42.714;23.244;2022-12-18T13:52:14;15.55;;;11.10;;
11414;SDS011;5763;42.714;23.244;2022-12-18T13:54:45;16.00;;;11.00;;
11414;SDS011;5763;42.714;23.244;2022-12-18T13:57:26;14.85;;;9.63;;
11414;SDS011;5763;42.714;23.244;2022-12-18T13:59:57;15.70;;;8.85;;
11414;SDS011;5763;42.714;23.244;2022-12-18T14:02:26;14.15;;;9.57;;
11414;SDS011;5763;42.714;23.244;2022-12-18T14:04:55;16.20;;;10.60;;
11414;SDS011;5763;42.714;23.244;2022-12-18T14:07:23;15.60;;;9.95;;
11414;SDS011;5763;42.714;23.244;2022-12-18T14:09:53;16.00;;;10.40;;
11414;SDS011;5763;42.714;23.244;2022-12-18T14:12:23;16.85;;;10.77;;
11414;SDS011;5763;42.714;23.244;2022-12-18T14:15:14;14.90;;;10.00;;
11414;SDS011;5763;42.714;23.244;2022-12-18T14:17:51;15.68;;;10.00;;
11414;SDS011;5763;42.714;23.244;2022-12-18T14:20:21;15.23;;;10.40;;
11414;SDS011;5763;42.714;23.244;2022-12-18T14:22:50;16.00;;;10.20;;
11414;SDS011;5763;42.714;23.244;2022-12-18T14:25:19;14.68;;;10.18;;
11414;SDS011;5763;42.714;23.244;2022-12-18T14:27:49;12.60;;;9.77;;
11414;SDS011;5763;42.714;23.244;2022-12-18T14:30:27;14.55;;;9.18;;
11414;SDS011;5763;42.714;23.244;2022-12-18T14:32:59;12.48;;;8.77;;
11414;SDS011;5763;42.714;23.244;2022-12-18T14:35:31;13.13;;;9.07;;
11414;SDS011;5763;42.714;23.244;2022-12-18T14:38:10;14.93;;;9.18;;
11414;SDS011;5763;42.714;23.244;2022-12-18T14:40:46;13.35;;;9.18;;
11414;SDS011;5763;42.714;23.244;2022-12-18T14:43:13;13.52;;;9.38;;
11414;SDS011;5763;42.714;23.244;2022-12-18T14:45:43;15.02;;;9.43;;
11414;SDS011;5763;42.714;23.244;2022-12-18T14:48:14;13.68;;;9.50;;
11414;SDS011;5763;42.714;23.244;2022-12-18T14:50:44;14.95;;;9.80;;
11414;SDS011;5763;42.714;23.244;2022-12-18T14:53:21;14.80;;;9.75;;
11414;SDS011;5763;42.714;23.244;2022-12-18T14:55:53;13.07;;;9.07;;
11414;SDS011;5763;42.714;23.244;2022-12-18T14:58:20;13.25;;;8.52;;
11414;SDS011;5763;42.714;23.244;2022-12-18T15:00:51;12.80;;;9.15;;
11414;SDS011;5763;42.714;23.244;2022-12-18T15:03:19;13.60;;;8.80;;
11414;SDS011;5763;42.714;23.244;2022-12-18T15:05:48;10.75;;;8.57;;
11414;SDS011;5763;42.714;23.244;2022-12-18T15:08:29;12.00;;;7.18;;
11414;SDS011;5763;42.714;23.244;2022-12-18T15:11:01;10.90;;;7.47;;
11414;SDS011;5763;42.714;23.244;2022-12-18T15:13:29;12.68;;;8.20;;